sensor_id;sensor_type;location;lat;lon;timestamp;pressure;altitude;pressure_sealevel;temperature;humidity
49461;BME280;35355;49.198;-0.368;2023-03-19T00:01:46;100699.47;;;11.58;72.30
49461;BME280;35355;49.198;-0.368;2023-03-19T00:04:12;100698.34;;;11.54;71.94
49461;BME280;35355;49.198;-0.368;2023-03-19T00:06:38;100703.56;;;11.51;72.25
49461;BME280;35355;49.198;-0.368;2023-03-19T00:09:03;100707.38;;;11.45;71.99
49461;BME280;35355;49.198;-0.368;2023-03-19T00:11:29;100702.97;;;11.38;71.94
49461;BME280;35355;49.198;-0.368;2023-03-19T00:13:54;100712.25;;;11.37;71.96
49461;BME280;35355;49.198;-0.368;2023-03-19T00:16:20;100716.06;;;11.36;71.88
49461;BME280;35355;49.198;-0.368;2023-03-19T00:18:46;100711.72;;;11.35;72.01
49461;BME280;35355;49.198;-0.368;2023-03-19T00:21:12;100717.97;;;11.31;72.01
49461;BME280;35355;49.198;-0.368;2023-03-19T00:23:37;100711.41;;;11.27;72.06
49461;BME280;35355;49.198;-0.368;2023-03-19T00:26:03;100722.59;;;11.30;71.72
49461;BME280;35355;49.198;-0.368;2023-03-19T00:28:28;100723.41;;;11.31;71.63
49461;BME280;35355;49.198;-0.368;2023-03-19T00:30:54;100730.53;;;11.32;71.69
49461;BME280;35355;49.198;-0.368;2023-03-19T00:33:19;100742.56;;;11.31;71.54
49461;BME280;35355;49.198;-0.368;2023-03-19T00:35:45;100747.19;;;11.30;71.50
49461;BME280;35355;49.198;-0.368;2023-03-19T00:38:10;100748.28;;;11.29;71.58
49461;BME280;35355;49.198;-0.368;2023-03-19T00:40:36;100748.53;;;11.28;71.25
49461;BME280;35355;49.198;-0.368;2023-03-19T00:43:02;100742.25;;;11.22;71.31
49461;BME280;35355;49.198;-0.368;2023-03-19T00:45:27;100751.22;;;11.17;71.58
49461;BME280;35355;49.198;-0.368;2023-03-19T00:47:55;100745.75;;;11.12;71.97
49461;BME280;35355;49.198;-0.368;2023-03-19T00:50:21;100756.63;;;11.07;71.88
49461;BME280;35355;49.198;-0.368;2023-03-19T00:52:46;100749.25;;;11.02;71.70
49461;BME280;35355;49.198;-0.368;2023-03-19T00:55:12;100756.06;;;11.00;71.61
49461;BME280;35355;49.198;-0.368;2023-03-19T00:57:37;100763.69;;;10.98;71.76
49461;BME280;35355;49.198;-0.368;2023-03-19T01:00:03;100766.97;;;10.95;71.95
49461;BME280;35355;49.198;-0.368;2023-03-19T01:02:30;100766.41;;;10.93;72.44
49461;BME280;35355;49.198;-0.368;2023-03-19T01:04:56;100757.38;;;10.92;72.22
49461;BME280;35355;49.198;-0.368;2023-03-19T01:07:21;100763.94;;;10.91;72.15
49461;BME280;35355;49.198;-0.368;2023-03-19T01:09:47;100754.91;;;10.91;72.56
49461;BME280;35355;49.198;-0.368;2023-03-19T01:12:12;100753.56;;;10.93;72.73
49461;BME280;35355;49.198;-0.368;2023-03-19T01:14:38;100750.84;;;10.93;72.71
49461;BME280;35355;49.198;-0.368;2023-03-19T01:17:03;100752.50;;;10.94;72.41
49461;BME280;35355;49.198;-0.368;2023-03-19T01:19:29;100751.38;;;10.95;72.63
49461;BME280;35355;49.198;-0.368;2023-03-19T01:21:54;100744.03;;;10.96;72.90
49461;BME280;35355;49.198;-0.368;2023-03-19T01:24:20;100738.00;;;10.94;72.68
49461;BME280;35355;49.198;-0.368;2023-03-19T01:26:45;100755.75;;;10.96;73.05
49461;BME280;35355;49.198;-0.368;2023-03-19T01:29:11;100755.75;;;10.96;73.28
49461;BME280;35355;49.198;-0.368;2023-03-19T01:31:36;100758.81;;;11.00;73.10
49461;BME280;35355;49.198;-0.368;2023-03-19T01:34:02;100749.25;;;11.02;73.21
49461;BME280;35355;49.198;-0.368;2023-03-19T01:36:27;100750.38;;;11.06;72.93
49461;BME280;35355;49.198;-0.368;2023-03-19T01:38:54;100734.22;;;11.00;73.38
49461;BME280;35355;49.198;-0.368;2023-03-19T01:41:21;100733.44;;;11.04;73.06
49461;BME280;35355;49.198;-0.368;2023-03-19T01:43:47;100746.03;;;11.11;73.35
49461;BME280;35355;49.198;-0.368;2023-03-19T01:48:49;100758.63;;;11.17;72.91
49461;BME280;35355;49.198;-0.368;2023-03-19T01:51:18;100762.47;;;11.21;73.34
49461;BME280;35355;49.198;-0.368;2023-03-19T01:53:47;100767.94;;;11.26;73.16
49461;BME280;35355;49.198;-0.368;2023-03-19T01:56:28;100771.53;;;11.27;72.92
49461;BME280;35355;49.198;-0.368;2023-03-19T01:58:59;100772.34;;;11.32;73.06
49461;BME280;35355;49.198;-0.368;2023-03-19T02:01:27;100763.63;;;11.35;73.22
49461;BME280;35355;49.198;-0.368;2023-03-19T02:03:54;100763.09;;;11.38;73.52
49461;BME280;35355;49.198;-0.368;2023-03-19T02:06:21;100762.56;;;11.41;73.03
49461;BME280;35355;49.198;-0.368;2023-03-19T02:08:47;100771.03;;;11.45;73.01
49461;BME280;35355;49.198;-0.368;2023-03-19T02:11:14;100769.16;;;11.51;73.12
49461;BME280;35355;49.198;-0.368;2023-03-19T02:13:39;100768.63;;;11.54;73.40
49461;BME280;35355;49.198;-0.368;2023-03-19T02:16:06;100768.91;;;11.57;73.08
49461;BME280;35355;49.198;-0.368;2023-03-19T02:18:31;100774.94;;;11.59;73.12
49461;BME280;35355;49.198;-0.368;2023-03-19T02:21:16;100771.13;;;11.61;73.11
49461;BME280;35355;49.198;-0.368;2023-03-19T02:26:40;100767.03;;;11.68;72.69
49461;BME280;35355;49.198;-0.368;2023-03-19T02:29:06;100758.28;;;11.66;72.87
49461;BME280;35355;49.198;-0.368;2023-03-19T02:31:32;100753.34;;;11.63;73.09
49461;BME280;35355;49.198;-0.368;2023-03-19T02:36:50;100749.50;;;11.59;73.33
49461;BME280;35355;49.198;-0.368;2023-03-19T02:39:34;100743.22;;;11.58;72.90
49461;BME280;35355;49.198;-0.368;2023-03-19T02:42:02;100755.25;;;11.57;72.77
49461;BME280;35355;49.198;-0.368;2023-03-19T02:44:29;100755.75;;;11.54;72.98
49461;BME280;35355;49.198;-0.368;2023-03-19T02:46:54;100753.84;;;11.50;73.25
49461;BME280;35355;49.198;-0.368;2023-03-19T02:49:20;100765.31;;;11.47;73.32
49461;BME280;35355;49.198;-0.368;2023-03-19T02:51:45;100769.66;;;11.43;73.39
49461;BME280;35355;49.198;-0.368;2023-03-19T02:54:11;100767.72;;;11.38;73.85
49461;BME280;35355;49.198;-0.368;2023-03-19T02:56:36;100774.03;;;11.38;74.36
49461;BME280;35355;49.198;-0.368;2023-03-19T02:59:01;100776.22;;;11.41;74.50
49461;BME280;35355;49.198;-0.368;2023-03-19T03:01:27;100781.13;;;11.39;74.56
49461;BME280;35355;49.198;-0.368;2023-03-19T03:03:53;100778.38;;;11.39;74.63
49461;BME280;35355;49.198;-0.368;2023-03-19T03:06:19;100778.97;;;11.41;74.79
49461;BME280;35355;49.198;-0.368;2023-03-19T03:08:44;100779.50;;;11.44;74.61
49461;BME280;35355;49.198;-0.368;2023-03-19T03:11:09;100770.22;;;11.45;74.46
49461;BME280;35355;49.198;-0.368;2023-03-19T03:13:35;100758.47;;;11.44;74.54
49461;BME280;35355;49.198;-0.368;2023-03-19T03:16:00;100758.72;;;11.43;74.67
49461;BME280;35355;49.198;-0.368;2023-03-19T03:18:26;100763.09;;;11.44;75.07
49461;BME280;35355;49.198;-0.368;2023-03-19T03:20:52;100754.09;;;11.43;75.02
49461;BME280;35355;49.198;-0.368;2023-03-19T03:23:18;100760.38;;;11.44;74.75
49461;BME280;35355;49.198;-0.368;2023-03-19T03:25:43;100760.38;;;11.44;74.93
49461;BME280;35355;49.198;-0.368;2023-03-19T03:28:09;100753.25;;;11.43;75.30
49461;BME280;35355;49.198;-0.368;2023-03-19T03:30:35;100753.81;;;11.45;75.52
49461;BME280;35355;49.198;-0.368;2023-03-19T03:33:00;100750.03;;;11.51;75.68
49461;BME280;35355;49.198;-0.368;2023-03-19T03:35:26;100740.19;;;11.55;75.33
49461;BME280;35355;49.198;-0.368;2023-03-19T03:37:52;100741.31;;;11.59;75.61
49461;BME280;35355;49.198;-0.368;2023-03-19T03:40:17;100752.25;;;11.64;75.39
49461;BME280;35355;49.198;-0.368;2023-03-19T03:42:43;100747.09;;;11.68;75.05
49461;BME280;35355;49.198;-0.368;2023-03-19T03:45:09;100756.09;;;11.68;75.41
49461;BME280;35355;49.198;-0.368;2023-03-19T03:47:35;100750.63;;;11.68;75.25
49461;BME280;35355;49.198;-0.368;2023-03-19T03:50:01;100750.63;;;11.68;75.26
49461;BME280;35355;49.198;-0.368;2023-03-19T03:52:28;100757.22;;;11.72;75.66
49461;BME280;35355;49.198;-0.368;2023-03-19T03:54:56;100753.94;;;11.75;75.34
49461;BME280;35355;49.198;-0.368;2023-03-19T03:57:23;100760.25;;;11.81;75.35
49461;BME280;35355;49.198;-0.368;2023-03-19T03:59:48;100760.50;;;11.85;75.42
49461;BME280;35355;49.198;-0.368;2023-03-19T04:02:13;100758.88;;;11.89;75.50
49461;BME280;35355;49.198;-0.368;2023-03-19T04:04:39;100760.53;;;11.90;75.17
49461;BME280;35355;49.198;-0.368;2023-03-19T04:07:05;100752.34;;;11.90;75.52
49461;BME280;35355;49.198;-0.368;2023-03-19T04:09:31;100754.50;;;11.88;75.43
49461;BME280;35355;49.198;-0.368;2023-03-19T04:11:57;100758.88;;;11.89;75.56
49461;BME280;35355;49.198;-0.368;2023-03-19T04:14:22;100756.97;;;11.89;75.34
49461;BME280;35355;49.198;-0.368;2023-03-19T04:16:48;100764.91;;;11.91;75.54
49461;BME280;35355;49.198;-0.368;2023-03-19T04:19:13;100763.28;;;11.90;75.62
49461;BME280;35355;49.198;-0.368;2023-03-19T04:21:38;100767.09;;;11.89;75.61
49461;BME280;35355;49.198;-0.368;2023-03-19T04:24:04;100765.72;;;11.86;75.67
49461;BME280;35355;49.198;-0.368;2023-03-19T04:26:29;100773.09;;;11.86;75.61
49461;BME280;35355;49.198;-0.368;2023-03-19T04:28:56;100779.69;;;11.90;75.90
49461;BME280;35355;49.198;-0.368;2023-03-19T04:31:22;100774.75;;;11.92;75.60
49461;BME280;35355;49.198;-0.368;2023-03-19T04:33:47;100781.91;;;11.93;75.99
49461;BME280;35355;49.198;-0.368;2023-03-19T04:36:13;100782.97;;;11.92;75.52
49461;BME280;35355;49.198;-0.368;2023-03-19T04:38:38;100781.31;;;11.91;75.58
49461;BME280;35355;49.198;-0.368;2023-03-19T04:41:04;100791.16;;;11.92;76.02
49461;BME280;35355;49.198;-0.368;2023-03-19T04:43:29;100790.13;;;11.93;75.82
49461;BME280;35355;49.198;-0.368;2023-03-19T04:45:55;100794.72;;;11.92;76.07
49461;BME280;35355;49.198;-0.368;2023-03-19T04:48:20;100808.16;;;11.94;75.83
49461;BME280;35355;49.198;-0.368;2023-03-19T04:50:46;100806.53;;;11.93;75.54
49461;BME280;35355;49.198;-0.368;2023-03-19T04:53:16;100810.31;;;11.92;75.79
49461;BME280;35355;49.198;-0.368;2023-03-19T04:55:41;100820.44;;;11.91;76.16
49461;BME280;35355;49.198;-0.368;2023-03-19T04:58:07;100836.00;;;11.91;76.00
49461;BME280;35355;49.198;-0.368;2023-03-19T05:00:33;100836.56;;;11.88;75.95
49461;BME280;35355;49.198;-0.368;2023-03-19T05:02:59;100847.50;;;11.83;75.77
49461;BME280;35355;49.198;-0.368;2023-03-19T05:05:25;100841.97;;;11.72;75.75
49461;BME280;35355;49.198;-0.368;2023-03-19T05:07:50;100844.66;;;11.62;75.97
49461;BME280;35355;49.198;-0.368;2023-03-19T05:10:16;100849.00;;;11.58;76.23
49461;BME280;35355;49.198;-0.368;2023-03-19T05:12:41;100847.91;;;11.54;75.75
49461;BME280;35355;49.198;-0.368;2023-03-19T05:15:08;100856.63;;;11.51;75.93
49461;BME280;35355;49.198;-0.368;2023-03-19T05:17:33;100865.34;;;11.48;75.97
49461;BME280;35355;49.198;-0.368;2023-03-19T05:20:00;100879.56;;;11.45;76.26
49461;BME280;35355;49.198;-0.368;2023-03-19T05:22:26;100872.94;;;11.35;75.65
49461;BME280;35355;49.198;-0.368;2023-03-19T05:24:52;100876.16;;;11.27;75.86
49461;BME280;35355;49.198;-0.368;2023-03-19T05:27:17;100891.44;;;11.23;75.54
49461;BME280;35355;49.198;-0.368;2023-03-19T05:29:43;100890.03;;;11.20;76.01
49461;BME280;35355;49.198;-0.368;2023-03-19T05:32:08;100898.75;;;11.17;75.65
49461;BME280;35355;49.198;-0.368;2023-03-19T05:34:34;100891.09;;;11.14;75.32
49461;BME280;35355;49.198;-0.368;2023-03-19T05:37:00;100900.34;;;11.08;75.30
49461;BME280;35355;49.198;-0.368;2023-03-19T05:39:25;100910.41;;;11.02;75.22
49461;BME280;35355;49.198;-0.368;2023-03-19T05:41:51;100914.72;;;10.98;75.49
49461;BME280;35355;49.198;-0.368;2023-03-19T05:44:17;100905.09;;;10.91;75.04
49461;BME280;35355;49.198;-0.368;2023-03-19T05:46:42;100907.47;;;10.82;75.30
49461;BME280;35355;49.198;-0.368;2023-03-19T05:49:08;100918.13;;;10.78;75.13
49461;BME280;35355;49.198;-0.368;2023-03-19T05:51:34;100917.78;;;10.75;75.03
49461;BME280;35355;49.198;-0.368;2023-03-19T05:53:59;100926.50;;;10.71;74.70
49461;BME280;35355;49.198;-0.368;2023-03-19T05:56:24;100926.19;;;10.68;75.02
49461;BME280;35355;49.198;-0.368;2023-03-19T05:58:50;100928.88;;;10.63;74.58
49461;BME280;35355;49.198;-0.368;2023-03-19T06:01:16;100937.84;;;10.58;74.78
49461;BME280;35355;49.198;-0.368;2023-03-19T06:03:41;100939.44;;;10.54;74.42
49461;BME280;35355;49.198;-0.368;2023-03-19T06:06:07;100942.91;;;10.49;74.24
49461;BME280;35355;49.198;-0.368;2023-03-19T06:08:32;100946.75;;;10.48;74.39
49461;BME280;35355;49.198;-0.368;2023-03-19T06:10:58;100944.28;;;10.47;74.24
49461;BME280;35355;49.198;-0.368;2023-03-19T06:13:24;100948.09;;;10.46;74.30
49461;BME280;35355;49.198;-0.368;2023-03-19T06:15:49;100949.22;;;10.50;74.02
49461;BME280;35355;49.198;-0.368;2023-03-19T06:18:15;100950.84;;;10.51;73.81
49461;BME280;35355;49.198;-0.368;2023-03-19T06:20:41;100957.97;;;10.52;73.66
49461;BME280;35355;49.198;-0.368;2023-03-19T06:23:06;100964.50;;;10.51;73.60
49461;BME280;35355;49.198;-0.368;2023-03-19T06:25:32;100969.41;;;10.49;73.99
49461;BME280;35355;49.198;-0.368;2023-03-19T06:27:57;100970.22;;;10.49;73.76
49461;BME280;35355;49.198;-0.368;2023-03-19T06:30:23;100967.47;;;10.49;73.71
49461;BME280;35355;49.198;-0.368;2023-03-19T06:32:48;100974.84;;;10.49;73.66
49461;BME280;35355;49.198;-0.368;2023-03-19T06:35:14;100981.97;;;10.50;73.66
49461;BME280;35355;49.198;-0.368;2023-03-19T06:37:39;100981.97;;;10.50;73.53
49461;BME280;35355;49.198;-0.368;2023-03-19T06:40:06;101000.56;;;10.53;73.66
49461;BME280;35355;49.198;-0.368;2023-03-19T06:42:31;100997.00;;;10.52;73.36
49461;BME280;35355;49.198;-0.368;2023-03-19T06:44:57;100995.03;;;10.48;73.33
49461;BME280;35355;49.198;-0.368;2023-03-19T06:47:22;101003.47;;;10.46;73.57
49461;BME280;35355;49.198;-0.368;2023-03-19T06:49:47;101006.72;;;10.43;73.56
49461;BME280;35355;49.198;-0.368;2023-03-19T06:52:13;101011.63;;;10.41;73.46
49461;BME280;35355;49.198;-0.368;2023-03-19T06:54:38;101018.69;;;10.42;73.65
49461;BME280;35355;49.198;-0.368;2023-03-19T06:57:04;101023.94;;;10.44;73.30
49461;BME280;35355;49.198;-0.368;2023-03-19T06:59:29;101026.16;;;10.47;73.51
49461;BME280;35355;49.198;-0.368;2023-03-19T07:01:55;101028.13;;;10.51;73.40
49461;BME280;35355;49.198;-0.368;2023-03-19T07:04:21;101024.63;;;10.56;74.07
49461;BME280;35355;49.198;-0.368;2023-03-19T07:06:46;101027.34;;;10.56;73.42
49461;BME280;35355;49.198;-0.368;2023-03-19T07:09:11;101038.81;;;10.58;73.74
49461;BME280;35355;49.198;-0.368;2023-03-19T07:11:37;101034.22;;;10.59;73.62
49461;BME280;35355;49.198;-0.368;2023-03-19T07:14:03;101053.88;;;10.61;73.12
49461;BME280;35355;49.198;-0.368;2023-03-19T07:16:28;101051.44;;;10.64;73.21
49461;BME280;35355;49.198;-0.368;2023-03-19T07:18:54;101044.41;;;10.68;73.13
49461;BME280;35355;49.198;-0.368;2023-03-19T07:21:20;101048.28;;;10.73;73.12
49461;BME280;35355;49.198;-0.368;2023-03-19T07:23:45;101054.31;;;10.75;72.96
49461;BME280;35355;49.198;-0.368;2023-03-19T07:26:11;101051.81;;;10.73;73.16
49461;BME280;35355;49.198;-0.368;2023-03-19T07:28:37;101051.53;;;10.69;72.85
49461;BME280;35355;49.198;-0.368;2023-03-19T07:31:03;101063.47;;;10.63;72.62
49461;BME280;35355;49.198;-0.368;2023-03-19T07:33:28;101065.59;;;10.61;72.94
49461;BME280;35355;49.198;-0.368;2023-03-19T07:35:53;101059.59;;;10.59;72.90
49461;BME280;35355;49.198;-0.368;2023-03-19T07:38:19;101070.50;;;10.59;72.64
49461;BME280;35355;49.198;-0.368;2023-03-19T07:40:44;101075.47;;;10.62;72.64
49461;BME280;35355;49.198;-0.368;2023-03-19T07:43:10;101081.47;;;10.64;72.79
49461;BME280;35355;49.198;-0.368;2023-03-19T07:45:35;101082.13;;;10.71;73.25
49461;BME280;35355;49.198;-0.368;2023-03-19T07:48:01;101097.28;;;10.84;73.21
49461;BME280;35355;49.198;-0.368;2023-03-19T07:50:29;101091.69;;;10.96;72.88
49461;BME280;35355;49.198;-0.368;2023-03-19T07:52:55;101100.28;;;11.05;72.96
49461;BME280;35355;49.198;-0.368;2023-03-19T07:55:21;101099.50;;;11.10;72.51
49461;BME280;35355;49.198;-0.368;2023-03-19T07:57:46;101095.69;;;11.11;72.38
49461;BME280;35355;49.198;-0.368;2023-03-19T08:00:13;101101.47;;;11.14;72.56
49461;BME280;35355;49.198;-0.368;2023-03-19T08:02:39;101110.88;;;11.23;72.57
49461;BME280;35355;49.198;-0.368;2023-03-19T08:05:05;101108.97;;;11.29;72.53
49461;BME280;35355;49.198;-0.368;2023-03-19T08:07:31;101108.97;;;11.29;72.08
49461;BME280;35355;49.198;-0.368;2023-03-19T08:09:56;101121.84;;;11.29;72.00
49461;BME280;35355;49.198;-0.368;2023-03-19T08:12:25;101115.59;;;11.33;72.16
49461;BME280;35355;49.198;-0.368;2023-03-19T08:14:51;101116.53;;;11.44;72.44
49461;BME280;35355;49.198;-0.368;2023-03-19T08:17:16;101131.38;;;11.53;71.63
49461;BME280;35355;49.198;-0.368;2023-03-19T08:19:42;101123.97;;;11.49;71.46
49461;BME280;35355;49.198;-0.368;2023-03-19T08:22:08;101127.81;;;11.53;71.20
49461;BME280;35355;49.198;-0.368;2023-03-19T08:24:33;101132.81;;;11.61;71.27
49461;BME280;35355;49.198;-0.368;2023-03-19T08:26:59;101134.25;;;11.69;71.55
49461;BME280;35355;49.198;-0.368;2023-03-19T08:29:24;101137.88;;;11.74;71.26
49461;BME280;35355;49.198;-0.368;2023-03-19T08:31:52;101140.34;;;11.76;70.95
49461;BME280;35355;49.198;-0.368;2023-03-19T08:34:17;101133.72;;;11.72;71.10
49461;BME280;35355;49.198;-0.368;2023-03-19T08:36:42;101144.38;;;11.68;71.12
49461;BME280;35355;49.198;-0.368;2023-03-19T08:39:08;101153.97;;;11.71;71.07
49461;BME280;35355;49.198;-0.368;2023-03-19T08:41:33;101141.63;;;11.68;70.56
49461;BME280;35355;49.198;-0.368;2023-03-19T08:43:58;101139.97;;;11.67;70.88
49461;BME280;35355;49.198;-0.368;2023-03-19T08:46:24;101148.19;;;11.67;70.65
49461;BME280;35355;49.198;-0.368;2023-03-19T08:48:51;101150.38;;;11.65;70.51
49461;BME280;35355;49.198;-0.368;2023-03-19T08:51:17;101151.69;;;11.63;70.47
49461;BME280;35355;49.198;-0.368;2023-03-19T08:53:42;101148.97;;;11.63;70.71
49461;BME280;35355;49.198;-0.368;2023-03-19T08:56:08;101145.72;;;11.66;70.51
49461;BME280;35355;49.198;-0.368;2023-03-19T08:58:33;101150.66;;;11.69;70.19
49461;BME280;35355;49.198;-0.368;2023-03-19T09:01:00;101156.13;;;11.69;69.83
49461;BME280;35355;49.198;-0.368;2023-03-19T09:03:27;101166.25;;;11.68;70.03
49461;BME280;35355;49.198;-0.368;2023-03-19T09:05:52;101165.19;;;11.69;69.74
49461;BME280;35355;49.198;-0.368;2023-03-19T09:08:21;101164.34;;;11.69;69.84
49461;BME280;35355;49.198;-0.368;2023-03-19T09:10:47;101167.06;;;11.69;69.34
49461;BME280;35355;49.198;-0.368;2023-03-19T09:13:12;101164.59;;;11.67;69.21
49461;BME280;35355;49.198;-0.368;2023-03-19T09:15:37;101173.06;;;11.66;68.71
49461;BME280;35355;49.198;-0.368;2023-03-19T09:18:03;101182.59;;;11.63;69.21
49461;BME280;35355;49.198;-0.368;2023-03-19T09:20:28;101188.38;;;11.67;68.77
49461;BME280;35355;49.198;-0.368;2023-03-19T09:22:53;101192.78;;;11.68;68.86
49461;BME280;35355;49.198;-0.368;2023-03-19T09:25:19;101205.69;;;11.72;68.39
49461;BME280;35355;49.198;-0.368;2023-03-19T09:27:44;101194.47;;;11.74;68.30
49461;BME280;35355;49.198;-0.368;2023-03-19T09:30:10;101199.09;;;11.73;68.27
49461;BME280;35355;49.198;-0.368;2023-03-19T09:32:36;101203.75;;;11.73;68.51
49461;BME280;35355;49.198;-0.368;2023-03-19T09:35:01;101207.13;;;11.80;68.26
49461;BME280;35355;49.198;-0.368;2023-03-19T09:37:26;101209.59;;;11.82;68.20
49461;BME280;35355;49.198;-0.368;2023-03-19T09:39:52;101209.06;;;11.85;67.98
49461;BME280;35355;49.198;-0.368;2023-03-19T09:44:51;101217.28;;;11.85;67.84
49461;BME280;35355;49.198;-0.368;2023-03-19T09:49:55;101230.84;;;11.74;67.55
49461;BME280;35355;49.198;-0.368;2023-03-19T09:52:44;101226.66;;;11.67;67.69
49461;BME280;35355;49.198;-0.368;2023-03-19T09:57:49;101229.78;;;11.75;67.07
49461;BME280;35355;49.198;-0.368;2023-03-19T10:00:24;101227.03;;;11.75;67.06
49461;BME280;35355;49.198;-0.368;2023-03-19T10:17:03;101234.66;;;12.28;67.19
49461;BME280;35355;49.198;-0.368;2023-03-19T10:19:42;101241.06;;;12.39;67.88
49461;BME280;35355;49.198;-0.368;2023-03-19T10:22:14;101237.06;;;12.57;67.66
49461;BME280;35355;49.198;-0.368;2023-03-19T10:24:43;101244.03;;;12.70;66.61
49461;BME280;35355;49.198;-0.368;2023-03-19T10:27:16;101246.25;;;12.78;66.52
49461;BME280;35355;49.198;-0.368;2023-03-19T10:29:42;101244.91;;;12.86;65.97
49461;BME280;35355;49.198;-0.368;2023-03-19T10:34:44;101254.31;;;12.95;66.33
49461;BME280;35355;49.198;-0.368;2023-03-19T10:37:17;101258.19;;;13.04;66.10
49461;BME280;35355;49.198;-0.368;2023-03-19T10:39:46;101261.28;;;13.18;65.11
49461;BME280;35355;49.198;-0.368;2023-03-19T10:44:51;101271.00;;;13.36;65.02
49461;BME280;35355;49.198;-0.368;2023-03-19T10:47:24;101272.91;;;13.36;64.52
49461;BME280;35355;49.198;-0.368;2023-03-19T10:49:50;101278.06;;;13.32;63.61
49461;BME280;35355;49.198;-0.368;2023-03-19T10:54:43;101282.53;;;13.38;64.01
49461;BME280;35355;49.198;-0.368;2023-03-19T10:57:22;101267.72;;;13.44;64.09
49461;BME280;35355;49.198;-0.368;2023-03-19T10:59:48;101277.09;;;13.54;63.56
49461;BME280;35355;49.198;-0.368;2023-03-19T11:02:19;101275.75;;;13.61;63.30
49461;BME280;35355;49.198;-0.368;2023-03-19T11:04:46;101277.13;;;13.64;62.62
49461;BME280;35355;49.198;-0.368;2023-03-19T11:07:13;101274.66;;;13.57;62.00
49461;BME280;35355;49.198;-0.368;2023-03-19T11:09:40;101291.59;;;13.49;61.48
49461;BME280;35355;49.198;-0.368;2023-03-19T11:12:16;101283.88;;;13.36;61.41
49461;BME280;35355;49.198;-0.368;2023-03-19T11:14:42;101282.69;;;13.26;61.64
49461;BME280;35355;49.198;-0.368;2023-03-19T11:19:53;101278.88;;;13.27;62.08
49461;BME280;35355;49.198;-0.368;2023-03-19T11:24:56;101290.75;;;13.38;62.54
49461;BME280;35355;49.198;-0.368;2023-03-19T11:27:32;101296.53;;;13.47;62.08
49461;BME280;35355;49.198;-0.368;2023-03-19T11:30:00;101302.88;;;13.53;61.13
49461;BME280;35355;49.198;-0.368;2023-03-19T11:35:09;101296.31;;;13.59;61.01
49461;BME280;35355;49.198;-0.368;2023-03-19T11:51:45;101304.84;;;13.73;60.82
49461;BME280;35355;49.198;-0.368;2023-03-19T11:54:23;101304.91;;;13.78;60.56
49461;BME280;35355;49.198;-0.368;2023-03-19T11:57:03;101299.69;;;13.81;60.28
49461;BME280;35355;49.198;-0.368;2023-03-19T12:00:10;101310.66;;;13.81;60.21
49461;BME280;35355;49.198;-0.368;2023-03-19T12:05:20;101314.16;;;13.66;59.04
49461;BME280;35355;49.198;-0.368;2023-03-19T12:21:40;101314.34;;;13.39;58.42
49461;BME280;35355;49.198;-0.368;2023-03-19T12:32:36;101327.28;;;13.54;58.43
49461;BME280;35355;49.198;-0.368;2023-03-19T12:35:19;101324.28;;;13.56;58.25
49461;BME280;35355;49.198;-0.368;2023-03-19T12:37:58;101329.22;;;13.59;57.51
49461;BME280;35355;49.198;-0.368;2023-03-19T12:40:33;101333.06;;;13.58;57.52
49461;BME280;35355;49.198;-0.368;2023-03-19T12:43:02;101341.00;;;13.54;56.84
49461;BME280;35355;49.198;-0.368;2023-03-19T12:45:41;101336.06;;;13.51;57.64
49461;BME280;35355;49.198;-0.368;2023-03-19T12:48:15;101334.69;;;13.54;57.23
49461;BME280;35355;49.198;-0.368;2023-03-19T12:50:45;101327.56;;;13.53;56.49
49461;BME280;35355;49.198;-0.368;2023-03-19T12:53:25;101328.66;;;13.51;56.79
49461;BME280;35355;49.198;-0.368;2023-03-19T12:55:55;101329.47;;;13.52;56.31
49461;BME280;35355;49.198;-0.368;2023-03-19T12:58:36;101339.63;;;13.51;57.18
49461;BME280;35355;49.198;-0.368;2023-03-19T13:01:10;101340.97;;;13.49;56.68
49461;BME280;35355;49.198;-0.368;2023-03-19T13:03:51;101337.38;;;13.43;56.95
49461;BME280;35355;49.198;-0.368;2023-03-19T13:06:52;101336.28;;;13.44;57.91
49461;BME280;35355;49.198;-0.368;2023-03-19T13:14:54;101340.09;;;13.38;57.21
49461;BME280;35355;49.198;-0.368;2023-03-19T13:17:27;101347.00;;;13.46;56.49
49461;BME280;35355;49.198;-0.368;2023-03-19T13:20:00;101351.13;;;13.48;55.70
49461;BME280;35355;49.198;-0.368;2023-03-19T13:22:32;101344.28;;;13.51;55.83
49461;BME280;35355;49.198;-0.368;2023-03-19T13:25:00;101351.72;;;13.56;55.71
49461;BME280;35355;49.198;-0.368;2023-03-19T13:27:30;101350.59;;;13.57;55.70
49461;BME280;35355;49.198;-0.368;2023-03-19T13:32:39;101350.91;;;13.60;55.71
49461;BME280;35355;49.198;-0.368;2023-03-19T13:37:41;101339.13;;;13.65;55.88
49461;BME280;35355;49.198;-0.368;2023-03-19T13:40:40;101349.03;;;13.66;56.45
49461;BME280;35355;49.198;-0.368;2023-03-19T13:45:52;101343.81;;;13.69;54.94
49461;BME280;35355;49.198;-0.368;2023-03-19T13:53:34;101343.00;;;13.74;56.33
49461;BME280;35355;49.198;-0.368;2023-03-19T13:56:13;101339.47;;;13.84;56.24
49461;BME280;35355;49.198;-0.368;2023-03-19T13:58:46;101343.06;;;13.95;55.94
49461;BME280;35355;49.198;-0.368;2023-03-19T14:06:48;101348.53;;;13.84;56.52
49461;BME280;35355;49.198;-0.368;2023-03-19T14:12:20;101343.31;;;13.78;56.38
49461;BME280;35355;49.198;-0.368;2023-03-19T14:17:32;101354.31;;;13.88;56.03
49461;BME280;35355;49.198;-0.368;2023-03-19T14:28:28;101352.38;;;13.83;55.78
49461;BME280;35355;49.198;-0.368;2023-03-19T14:30:57;101353.47;;;13.82;55.56
49461;BME280;35355;49.198;-0.368;2023-03-19T14:33:31;101354.56;;;13.81;55.67
49461;BME280;35355;49.198;-0.368;2023-03-19T14:36:01;101349.59;;;13.78;55.27
49461;BME280;35355;49.198;-0.368;2023-03-19T14:38:37;101352.06;;;13.75;56.00
49461;BME280;35355;49.198;-0.368;2023-03-19T14:41:05;101357.56;;;13.80;55.90
49461;BME280;35355;49.198;-0.368;2023-03-19T14:54:36;101355.09;;;13.73;56.17
49461;BME280;35355;49.198;-0.368;2023-03-19T14:57:06;101361.66;;;13.72;55.47